createdAt,value
2024-03-14T00:00:08.667Z,10.10
2024-03-14T00:01:08.548Z,10.09
2024-03-14T00:02:08.511Z,10.09
2024-03-14T00:03:08.625Z,10.07
2024-03-14T00:04:08.542Z,10.07
2024-03-14T00:05:08.454Z,10.07
2024-03-14T00:06:08.479Z,10.07
2024-03-14T00:07:08.430Z,10.07
2024-03-14T00:08:08.451Z,10.06
2024-03-14T00:09:08.496Z,10.06
2024-03-14T00:10:08.536Z,10.06
2024-03-14T00:11:08.483Z,10.06
2024-03-14T00:12:08.508Z,10.07
2024-03-14T00:13:08.366Z,10.07
2024-03-14T00:14:08.334Z,10.06
2024-03-14T00:15:08.385Z,10.06
2024-03-14T00:16:08.383Z,10.07
2024-03-14T00:17:08.315Z,10.07
2024-03-14T00:18:08.395Z,10.07
2024-03-14T00:19:08.280Z,10.06
2024-03-14T00:20:08.487Z,10.07
2024-03-14T00:21:08.376Z,10.04
2024-03-14T00:22:08.258Z,10.04
2024-03-14T00:23:08.260Z,10.04
2024-03-14T00:24:08.299Z,10.04
2024-03-14T00:25:08.263Z,10.06
2024-03-14T00:26:08.214Z,10.04
2024-03-14T00:27:08.336Z,10.04
2024-03-14T00:28:08.150Z,10.04
2024-03-14T00:29:08.148Z,10.04
2024-03-14T00:30:08.267Z,10.06
2024-03-14T00:31:08.122Z,10.07
2024-03-14T00:32:08.166Z,10.06
2024-03-14T00:33:08.284Z,10.04
2024-03-14T00:34:08.089Z,10.04
2024-03-14T00:35:08.154Z,10.04
2024-03-14T00:36:08.081Z,10.06
2024-03-14T00:37:08.046Z,10.04
2024-03-14T00:38:08.093Z,10.03
2024-03-14T00:39:08.148Z,10.04
2024-03-14T00:40:07.997Z,10.01
2024-03-14T00:41:07.988Z,10.03
2024-03-14T00:42:08.193Z,10.01
2024-03-14T00:43:07.993Z,10.03
2024-03-14T00:44:07.953Z,10.01
2024-03-14T00:45:08.029Z,10.01
2024-03-14T00:46:07.943Z,10.01
2024-03-14T00:47:07.936Z,10.01
2024-03-14T00:48:08.182Z,10.00
2024-03-14T00:49:08.101Z,10.01
2024-03-14T00:50:07.883Z,10.00
2024-03-14T00:51:07.891Z,10.00
2024-03-14T00:52:07.922Z,9.99
2024-03-14T00:53:07.865Z,10.00
2024-03-14T00:54:07.850Z,9.99
2024-03-14T00:55:07.886Z,9.99
2024-03-14T00:56:07.833Z,9.99
2024-03-14T00:57:07.948Z,9.97
2024-03-14T00:58:07.832Z,9.96
2024-03-14T00:59:07.792Z,9.97
2024-03-14T01:00:07.786Z,9.96
2024-03-14T01:01:07.824Z,9.96
2024-03-14T01:02:07.790Z,9.94
2024-03-14T01:03:07.748Z,9.97
2024-03-14T01:04:07.731Z,9.96
2024-03-14T01:05:07.706Z,9.96
2024-03-14T01:06:07.732Z,9.97
2024-03-14T01:07:07.674Z,9.97
2024-03-14T01:08:07.670Z,9.97
2024-03-14T01:09:07.726Z,9.97
2024-03-14T01:10:07.706Z,9.99
2024-03-14T01:11:07.842Z,9.97
2024-03-14T01:12:07.641Z,9.97
2024-03-14T01:13:07.676Z,9.97
2024-03-14T01:14:07.631Z,9.99
2024-03-14T01:15:07.790Z,9.99
2024-03-14T01:16:07.575Z,10.00
2024-03-14T01:17:07.527Z,10.00
2024-03-14T01:18:07.773Z,10.00
2024-03-14T01:19:07.640Z,9.99
2024-03-14T01:20:07.523Z,9.99
2024-03-14T01:21:07.611Z,9.96
2024-03-14T01:22:07.546Z,9.96
2024-03-14T01:23:07.524Z,9.91
2024-03-14T01:24:07.595Z,9.89
2024-03-14T01:25:07.551Z,9.86
2024-03-14T01:26:07.419Z,9.85
2024-03-14T01:27:07.426Z,9.85
2024-03-14T01:28:07.537Z,9.83
2024-03-14T01:29:07.429Z,9.81
2024-03-14T01:30:07.469Z,9.78
2024-03-14T01:31:07.354Z,9.76
2024-03-14T01:32:07.337Z,9.75
2024-03-14T01:33:07.396Z,9.75
2024-03-14T01:34:07.384Z,9.71
2024-03-14T01:35:07.335Z,9.73
2024-03-14T01:36:07.326Z,9.71
2024-03-14T01:37:07.364Z,9.70
2024-03-14T01:38:07.288Z,9.70
2024-03-14T01:39:07.535Z,9.68
2024-03-14T01:40:07.250Z,9.66
2024-03-14T01:41:07.396Z,9.63
2024-03-14T01:42:07.234Z,9.61
2024-03-14T01:43:07.199Z,9.61
2024-03-14T01:44:07.187Z,9.63
2024-03-14T01:45:07.268Z,9.64
2024-03-14T01:46:07.192Z,9.63
2024-03-14T01:47:07.137Z,9.63
2024-03-14T01:48:07.239Z,9.64
2024-03-14T01:49:07.287Z,9.66
2024-03-14T01:50:07.548Z,9.63
2024-03-14T01:51:07.214Z,9.61
2024-03-14T01:52:07.116Z,9.60
2024-03-14T01:53:07.161Z,9.58
2024-03-14T01:54:07.179Z,9.58
2024-03-14T01:55:07.044Z,9.57
2024-03-14T01:56:07.117Z,9.58
2024-03-14T01:57:07.107Z,9.57
2024-03-14T01:58:07.044Z,9.57
2024-03-14T01:59:07.005Z,9.56
2024-03-14T02:00:07.038Z,9.56
2024-03-14T02:01:07.146Z,9.56
2024-03-14T02:02:06.950Z,9.53
2024-03-14T02:03:06.948Z,9.53
2024-03-14T02:04:06.922Z,9.53
2024-03-14T02:05:06.908Z,9.53
2024-03-14T02:06:06.966Z,9.57
2024-03-14T02:07:06.944Z,9.58
2024-03-14T02:08:06.868Z,9.60
2024-03-14T02:09:06.883Z,9.58
2024-03-14T02:10:06.899Z,9.58
2024-03-14T02:11:06.839Z,9.58
2024-03-14T02:12:06.950Z,9.60
2024-03-14T02:13:06.938Z,9.61
2024-03-14T02:14:06.798Z,9.66
2024-03-14T02:15:06.842Z,9.64
2024-03-14T02:16:06.820Z,9.66
2024-03-14T02:17:06.749Z,9.67
2024-03-14T02:18:06.923Z,9.67
2024-03-14T02:19:06.820Z,9.68
2024-03-14T02:20:06.763Z,9.70
2024-03-14T02:21:06.792Z,9.70
2024-03-14T02:22:06.738Z,9.70
2024-03-14T02:23:06.697Z,9.70
2024-03-14T02:24:06.672Z,9.71
2024-03-14T02:25:06.658Z,9.70
2024-03-14T02:26:06.646Z,9.71
2024-03-14T02:27:06.715Z,9.71
2024-03-14T02:28:06.633Z,9.73
2024-03-14T02:29:06.613Z,9.73
2024-03-14T02:30:06.731Z,9.71
2024-03-14T02:31:06.619Z,9.71
2024-03-14T02:32:06.664Z,9.73
2024-03-14T02:33:06.777Z,9.73
2024-03-14T02:34:06.556Z,9.75
2024-03-14T02:35:06.545Z,9.75
2024-03-14T02:36:06.614Z,9.73
2024-03-14T02:37:06.516Z,9.75
2024-03-14T02:38:06.518Z,9.73
2024-03-14T02:39:06.567Z,9.76
2024-03-14T02:40:06.493Z,9.76
2024-03-14T02:41:06.453Z,9.76
2024-03-14T02:42:06.495Z,9.76
2024-03-14T02:43:06.409Z,9.78
2024-03-14T02:44:06.459Z,9.78
2024-03-14T02:45:06.492Z,9.79
2024-03-14T02:46:06.455Z,9.78
2024-03-14T02:47:06.421Z,9.78
2024-03-14T02:48:06.445Z,9.79
2024-03-14T02:49:06.388Z,9.79
2024-03-14T02:50:06.328Z,9.81
2024-03-14T02:51:06.380Z,9.81
2024-03-14T02:52:06.301Z,9.82
2024-03-14T02:53:06.278Z,9.83
2024-03-14T02:54:06.356Z,9.83
2024-03-14T02:55:06.376Z,9.83
2024-03-14T02:56:06.293Z,9.83
2024-03-14T02:57:06.348Z,9.83
2024-03-14T02:58:06.259Z,9.82
2024-03-14T02:59:06.230Z,9.82
2024-03-14T03:00:06.215Z,9.82
2024-03-14T03:01:06.272Z,9.82
2024-03-14T03:02:06.197Z,9.83
2024-03-14T03:03:06.360Z,9.83
2024-03-14T03:04:06.179Z,9.85
2024-03-14T03:05:06.154Z,9.83
2024-03-14T03:06:06.214Z,9.82
2024-03-14T03:07:06.302Z,9.82
2024-03-14T03:08:06.125Z,9.83
2024-03-14T03:09:06.252Z,9.85
2024-03-14T03:10:06.097Z,9.83
2024-03-14T03:11:06.164Z,9.83
2024-03-14T03:12:06.209Z,9.85
2024-03-14T03:13:06.079Z,9.83
2024-03-14T03:14:06.107Z,9.83
2024-03-14T03:15:06.226Z,9.83
2024-03-14T03:16:06.174Z,9.85
2024-03-14T03:17:06.101Z,9.83
2024-03-14T03:18:06.123Z,9.83
2024-03-14T03:19:06.097Z,9.83
2024-03-14T03:20:05.965Z,9.82
2024-03-14T03:21:06.030Z,9.83
2024-03-14T03:22:06.052Z,9.83
2024-03-14T03:23:05.917Z,9.83
2024-03-14T03:24:05.912Z,9.85
2024-03-14T03:25:05.968Z,9.86
2024-03-14T03:26:05.904Z,9.85
2024-03-14T03:27:05.959Z,9.86
2024-03-14T03:28:05.876Z,9.86
2024-03-14T03:29:05.885Z,9.86
2024-03-14T03:30:05.879Z,9.86
2024-03-14T03:31:05.886Z,9.85
2024-03-14T03:32:05.816Z,9.85
2024-03-14T03:33:05.862Z,9.83
2024-03-14T03:34:05.884Z,9.83
2024-03-14T03:35:05.828Z,9.83
2024-03-14T03:36:05.771Z,9.83
2024-03-14T03:37:05.800Z,9.85
2024-03-14T03:38:05.746Z,9.85
2024-03-14T03:39:05.809Z,9.85
2024-03-14T03:40:05.782Z,9.85
2024-03-14T03:41:05.675Z,9.83
2024-03-14T03:42:05.677Z,9.83
2024-03-14T03:43:05.675Z,9.82
2024-03-14T03:44:05.683Z,9.82
2024-03-14T03:45:05.625Z,9.83
2024-03-14T03:46:05.617Z,9.83
2024-03-14T03:47:05.600Z,9.86
2024-03-14T03:48:05.662Z,9.85
2024-03-14T03:49:05.619Z,9.86
2024-03-14T03:50:05.608Z,9.88
2024-03-14T03:51:05.600Z,9.86
2024-03-14T03:52:05.642Z,9.88
2024-03-14T03:53:05.629Z,9.88
2024-03-14T03:54:05.739Z,9.88
2024-03-14T03:55:05.505Z,9.89
2024-03-14T03:56:05.607Z,9.88
2024-03-14T03:57:05.491Z,9.88
2024-03-14T03:58:05.540Z,9.86
2024-03-14T03:59:05.429Z,9.85
2024-03-14T04:00:05.556Z,9.85
2024-03-14T04:01:05.494Z,9.86
2024-03-14T04:02:05.439Z,9.85
2024-03-14T04:03:05.446Z,9.83
2024-03-14T04:04:05.400Z,9.86
2024-03-14T04:05:05.351Z,9.85
2024-03-14T04:06:05.388Z,9.86
2024-03-14T04:07:05.379Z,9.86
2024-03-14T04:08:05.364Z,9.85
2024-03-14T04:09:05.391Z,9.85
2024-03-14T04:10:05.317Z,9.86
2024-03-14T04:11:05.474Z,9.85
2024-03-14T04:12:05.418Z,9.88
2024-03-14T04:13:05.272Z,9.88
2024-03-14T04:14:05.253Z,9.88
2024-03-14T04:15:05.304Z,9.88
2024-03-14T04:16:05.251Z,9.88
2024-03-14T04:17:05.234Z,9.89
2024-03-14T04:18:05.291Z,9.89
2024-03-14T04:19:05.272Z,9.88
2024-03-14T04:20:05.181Z,9.89
2024-03-14T04:21:05.187Z,9.86
2024-03-14T04:22:05.167Z,9.89
2024-03-14T04:23:05.259Z,9.88
2024-03-14T04:24:05.142Z,9.86
2024-03-14T04:25:05.160Z,9.88
2024-03-14T04:26:05.090Z,9.86
2024-03-14T04:27:05.194Z,9.85
2024-03-14T04:28:05.236Z,9.86
2024-03-14T04:29:05.155Z,9.86
2024-03-14T04:30:05.093Z,9.86
2024-03-14T04:31:05.035Z,9.88
2024-03-14T04:32:05.017Z,9.88
2024-03-14T04:33:05.077Z,9.88
2024-03-14T04:34:05.050Z,9.88
2024-03-14T04:35:05.015Z,9.88
2024-03-14T04:36:05.279Z,9.88
2024-03-14T04:37:04.975Z,9.86
2024-03-14T04:38:04.935Z,9.85
2024-03-14T04:39:05.020Z,9.88
2024-03-14T04:40:04.933Z,9.85
2024-03-14T04:41:04.909Z,9.86
2024-03-14T04:42:04.904Z,9.86
2024-03-14T04:43:04.901Z,9.86
2024-03-14T04:44:04.965Z,9.86
2024-03-14T04:45:04.922Z,9.85
2024-03-14T04:46:04.861Z,9.86
2024-03-14T04:47:04.901Z,9.86
2024-03-14T04:48:04.983Z,9.85
2024-03-14T04:49:04.926Z,9.86
2024-03-14T04:50:04.870Z,9.86
2024-03-14T04:51:04.822Z,9.88
2024-03-14T04:52:04.791Z,9.88
2024-03-14T04:53:04.756Z,9.86
2024-03-14T04:54:04.844Z,9.86
2024-03-14T04:55:04.745Z,9.85
2024-03-14T04:56:04.805Z,9.86
2024-03-14T04:57:04.772Z,9.86
2024-03-14T04:58:04.704Z,9.86
2024-03-14T04:59:04.687Z,9.86
2024-03-14T05:00:04.752Z,9.86
2024-03-14T05:01:04.713Z,9.85
2024-03-14T05:02:04.640Z,9.82
2024-03-14T05:03:04.703Z,9.85
2024-03-14T05:05:04.592Z,9.85
2024-03-14T05:06:04.833Z,9.83
2024-03-14T05:07:04.594Z,9.83
2024-03-14T05:08:04.609Z,9.85
2024-03-14T05:09:04.596Z,9.86
2024-03-14T05:10:04.535Z,9.88
2024-03-14T05:11:04.504Z,9.86
2024-03-14T05:12:04.579Z,9.86
2024-03-14T05:13:04.533Z,9.88
2024-03-14T05:14:04.522Z,9.86
2024-03-14T05:15:04.494Z,9.86
2024-03-14T05:16:04.569Z,9.86
2024-03-14T05:17:04.426Z,9.85
2024-03-14T05:18:04.720Z,9.86
2024-03-14T05:19:04.624Z,9.86
2024-03-14T05:20:04.392Z,9.88
2024-03-14T05:21:04.527Z,9.86
2024-03-14T05:22:04.367Z,9.86
2024-03-14T05:23:04.671Z,9.86
2024-03-14T05:24:04.387Z,9.85
2024-03-14T05:25:04.380Z,9.86
2024-03-14T05:26:04.435Z,9.85
2024-03-14T05:27:04.372Z,9.86
2024-03-14T05:28:04.477Z,9.85
2024-03-14T05:29:04.280Z,9.85
2024-03-14T05:30:04.391Z,9.86
2024-03-14T05:31:04.346Z,9.86
2024-03-14T05:32:04.318Z,9.88
2024-03-14T05:33:04.419Z,9.88
2024-03-14T05:34:04.263Z,9.88
2024-03-14T05:35:04.277Z,9.86
2024-03-14T05:36:04.423Z,9.86
2024-03-14T05:37:04.229Z,9.85
2024-03-14T05:38:04.225Z,9.88
2024-03-14T05:39:04.455Z,9.86
2024-03-14T05:40:04.142Z,9.86
2024-03-14T05:41:04.120Z,9.86
2024-03-14T05:42:05.006Z,9.91
2024-03-14T05:43:04.110Z,9.91
2024-03-14T05:44:04.087Z,9.91
2024-03-14T05:45:04.098Z,9.93
2024-03-14T05:46:04.219Z,9.93
2024-03-14T05:47:04.066Z,9.94
2024-03-14T05:48:04.109Z,9.94
2024-03-14T05:49:05.060Z,9.94
2024-03-14T05:50:05.692Z,9.96
2024-03-14T05:51:04.049Z,9.96
2024-03-14T05:52:03.985Z,9.99
2024-03-14T05:53:04.011Z,9.99
2024-03-14T05:54:04.022Z,10.00
2024-03-14T05:55:04.278Z,10.03
2024-03-14T05:56:03.969Z,10.04
2024-03-14T05:57:03.991Z,10.07
2024-03-14T05:58:03.984Z,10.06
2024-03-14T05:59:03.961Z,10.09
2024-03-14T06:00:04.007Z,10.09
2024-03-14T06:01:03.952Z,10.09
2024-03-14T06:02:03.910Z,10.15
2024-03-14T06:03:03.998Z,10.17
2024-03-14T06:04:03.919Z,10.19
2024-03-14T06:05:03.837Z,10.18
2024-03-14T06:06:03.951Z,10.19
2024-03-14T06:07:03.851Z,10.19
2024-03-14T06:08:03.837Z,10.19
2024-03-14T06:09:03.792Z,10.18
2024-03-14T06:10:03.790Z,10.19
2024-03-14T06:11:04.790Z,10.19
2024-03-14T06:12:03.812Z,10.18
2024-03-14T06:13:03.741Z,10.22
2024-03-14T06:14:03.737Z,10.22
2024-03-14T06:15:03.745Z,10.25
2024-03-14T06:16:03.724Z,10.26
2024-03-14T06:17:03.706Z,10.32
2024-03-14T06:18:03.801Z,10.34
2024-03-14T06:19:03.748Z,10.39
2024-03-14T06:20:03.635Z,10.40
2024-03-14T06:21:03.678Z,10.43
2024-03-14T06:22:03.603Z,10.46
2024-03-14T06:23:05.245Z,10.53
2024-03-14T06:24:03.657Z,10.59
2024-03-14T06:25:03.580Z,10.62
2024-03-14T06:26:03.549Z,10.65
2024-03-14T06:27:03.540Z,10.71
2024-03-14T06:28:03.531Z,10.76
2024-03-14T06:29:03.502Z,10.80
2024-03-14T06:30:03.539Z,10.88
2024-03-14T06:31:03.500Z,10.92
2024-03-14T06:32:03.460Z,10.98
2024-03-14T06:33:03.544Z,11.02
2024-03-14T06:34:03.537Z,11.06
2024-03-14T06:35:03.538Z,11.10
2024-03-14T06:36:03.479Z,11.13
2024-03-14T06:37:03.468Z,11.17
2024-03-14T06:38:03.449Z,11.20
2024-03-14T06:39:03.405Z,11.24
2024-03-14T06:40:03.368Z,11.27
2024-03-14T06:41:03.396Z,11.29
2024-03-14T06:42:03.432Z,11.32
2024-03-14T06:43:03.343Z,11.36
2024-03-14T06:44:03.394Z,11.41
2024-03-14T06:45:03.365Z,11.44
2024-03-14T06:46:03.279Z,11.47
2024-03-14T06:47:03.385Z,11.52
2024-03-14T06:48:03.320Z,11.53
2024-03-14T06:49:03.406Z,11.56
2024-03-14T06:50:03.261Z,11.59
2024-03-14T06:51:03.299Z,11.57
2024-03-14T06:52:03.307Z,11.59
2024-03-14T06:53:03.196Z,11.61
2024-03-14T06:54:04.523Z,11.61
2024-03-14T06:55:03.215Z,11.64
2024-03-14T06:56:03.192Z,11.64
2024-03-14T06:57:03.390Z,11.62
2024-03-14T06:58:03.139Z,11.62
2024-03-14T06:59:09.873Z,11.62
2024-03-14T07:00:03.194Z,11.64
2024-03-14T07:01:03.220Z,11.64
2024-03-14T07:02:03.179Z,11.64
2024-03-14T07:03:03.147Z,11.65
2024-03-14T07:04:03.042Z,11.67
2024-03-14T07:05:04.168Z,11.64
2024-03-14T07:06:03.036Z,11.64
2024-03-14T07:07:03.017Z,11.62
2024-03-14T07:08:03.000Z,11.61
2024-03-14T07:09:03.195Z,11.59
2024-03-14T07:10:03.001Z,11.57
2024-03-14T07:11:02.992Z,11.56
2024-03-14T07:12:03.086Z,11.59
2024-03-14T07:13:03.146Z,11.56
2024-03-14T07:14:02.929Z,11.54
2024-03-14T07:15:02.976Z,11.54
2024-03-14T07:16:02.883Z,11.54
2024-03-14T07:17:02.897Z,11.53
2024-03-14T07:18:03.074Z,11.54
2024-03-14T07:19:02.937Z,11.54
2024-03-14T07:20:02.841Z,11.56
2024-03-14T07:21:02.860Z,11.56
2024-03-14T07:22:02.897Z,11.57
2024-03-14T07:23:02.816Z,11.57
2024-03-14T07:24:02.831Z,11.57
2024-03-14T07:25:04.784Z,11.57
2024-03-14T07:26:02.789Z,11.57
2024-03-14T07:27:02.898Z,11.57
2024-03-14T07:28:02.743Z,11.59
2024-03-14T07:29:02.743Z,11.59
2024-03-14T07:30:02.840Z,11.57
2024-03-14T07:31:02.709Z,11.61
2024-03-14T07:32:02.712Z,11.62
2024-03-14T07:33:02.771Z,11.62
2024-03-14T07:34:02.686Z,11.62
2024-03-14T07:35:02.680Z,11.61
2024-03-14T07:36:02.726Z,11.62
2024-03-14T07:37:02.740Z,11.64
2024-03-14T07:38:02.601Z,11.65
2024-03-14T07:39:02.627Z,11.68
2024-03-14T07:40:02.773Z,11.68
2024-03-14T07:41:02.638Z,11.67
2024-03-14T07:42:02.693Z,11.65
2024-03-14T07:43:02.634Z,11.62
2024-03-14T07:44:15.841Z,11.67
2024-03-14T07:45:03.618Z,11.65
2024-03-14T07:46:02.519Z,11.67
2024-03-14T07:47:05.430Z,11.67
2024-03-14T07:48:02.588Z,11.67
2024-03-14T07:49:02.554Z,11.68
2024-03-14T07:50:02.746Z,11.70
2024-03-14T07:51:02.768Z,11.71
2024-03-14T07:52:02.435Z,11.70
2024-03-14T07:53:02.423Z,11.70
2024-03-14T07:54:02.575Z,11.72
2024-03-14T07:55:02.671Z,11.74
2024-03-14T07:56:02.427Z,11.75
2024-03-14T07:57:02.438Z,11.75
2024-03-14T07:58:02.476Z,11.78
2024-03-14T07:59:02.367Z,11.78
2024-03-14T08:00:02.345Z,11.82
2024-03-14T08:01:02.398Z,11.86
2024-03-14T08:02:02.349Z,11.90
2024-03-14T08:03:02.472Z,11.93
2024-03-14T08:04:02.346Z,11.97
2024-03-14T08:05:02.265Z,12.04
2024-03-14T08:06:02.366Z,12.08
2024-03-14T08:07:02.385Z,12.12
2024-03-14T08:08:13.692Z,12.16
2024-03-14T08:09:03.296Z,12.21
2024-03-14T08:10:02.216Z,12.30
2024-03-14T08:11:02.237Z,12.39
2024-03-14T08:12:02.224Z,12.49
2024-03-14T08:13:02.260Z,12.63
2024-03-14T08:14:02.577Z,12.71
2024-03-14T08:15:02.142Z,12.75
2024-03-14T08:16:02.126Z,12.82
2024-03-14T08:17:02.118Z,12.92
2024-03-14T08:18:02.167Z,12.96
2024-03-14T08:19:02.177Z,13.03
2024-03-14T08:20:02.080Z,13.12
2024-03-14T08:21:02.203Z,13.20
2024-03-14T08:22:02.120Z,13.25
2024-03-14T08:23:02.065Z,13.24
2024-03-14T08:24:02.059Z,13.24
2024-03-14T08:25:02.036Z,13.25
2024-03-14T08:26:01.984Z,13.30
2024-03-14T08:27:02.033Z,13.33
2024-03-14T08:28:01.979Z,13.37
2024-03-14T08:29:01.939Z,13.38
2024-03-14T08:30:02.002Z,13.38
2024-03-14T08:31:02.066Z,13.33
2024-03-14T08:32:01.894Z,13.38
2024-03-14T08:33:02.037Z,13.40
2024-03-14T08:34:03.745Z,13.37
2024-03-14T08:35:01.907Z,13.32
2024-03-14T08:36:01.893Z,13.38
2024-03-14T08:37:01.852Z,13.41
2024-03-14T08:38:01.917Z,13.47
2024-03-14T08:39:02.030Z,13.55
2024-03-14T08:40:01.801Z,13.61
2024-03-14T08:41:01.806Z,13.62
2024-03-14T08:42:01.801Z,13.63
2024-03-14T08:43:01.886Z,13.69
2024-03-14T08:44:01.790Z,13.77
2024-03-14T08:45:01.798Z,13.84
2024-03-14T08:46:01.819Z,13.92
2024-03-14T08:47:01.711Z,13.99
2024-03-14T08:48:01.963Z,14.02
2024-03-14T08:49:01.886Z,14.04
2024-03-14T08:50:01.684Z,14.04
2024-03-14T08:51:01.704Z,14.07
2024-03-14T08:52:01.659Z,14.13
2024-03-14T08:53:01.671Z,14.17
2024-03-14T08:54:01.711Z,14.19
2024-03-14T08:55:01.652Z,14.12
2024-03-14T08:56:01.614Z,14.21
2024-03-14T08:57:01.620Z,14.17
2024-03-14T08:58:01.673Z,14.21
2024-03-14T08:59:01.578Z,14.34
2024-03-14T09:00:01.769Z,14.43
2024-03-14T09:01:01.636Z,14.50
2024-03-14T09:02:01.518Z,14.50
2024-03-14T09:03:01.576Z,14.50
2024-03-14T09:04:01.616Z,14.53
2024-03-14T09:05:01.517Z,14.57
2024-03-14T09:06:01.504Z,14.60
2024-03-14T09:07:01.463Z,14.68
2024-03-14T09:08:01.510Z,14.67
2024-03-14T09:09:01.860Z,14.64
2024-03-14T09:10:01.445Z,14.64
2024-03-14T09:11:01.472Z,14.68
2024-03-14T09:12:01.416Z,14.75
2024-03-14T09:13:01.414Z,14.84
2024-03-14T09:14:01.453Z,14.80
2024-03-14T09:15:01.495Z,14.81
2024-03-14T09:16:01.359Z,14.81
2024-03-14T09:17:01.377Z,14.84
2024-03-14T09:18:01.510Z,14.88
2024-03-14T09:19:01.353Z,14.98
2024-03-14T09:20:01.416Z,15.05
2024-03-14T09:21:01.311Z,14.95
2024-03-14T09:22:01.452Z,14.91
2024-03-14T09:23:01.259Z,15.02
2024-03-14T09:24:01.384Z,15.11
2024-03-14T09:25:01.236Z,15.12
2024-03-14T09:26:01.271Z,15.19
2024-03-14T09:27:01.250Z,15.26
2024-03-14T09:28:01.248Z,15.23
2024-03-14T09:29:02.157Z,15.27
2024-03-14T09:30:01.316Z,15.24
2024-03-14T09:31:01.352Z,15.03
2024-03-14T09:32:01.236Z,15.05
2024-03-14T09:33:01.210Z,15.12
2024-03-14T09:34:01.243Z,15.21
2024-03-14T09:35:01.097Z,15.26
2024-03-14T09:36:01.125Z,15.35
2024-03-14T09:37:01.122Z,15.41
2024-03-14T09:38:01.150Z,15.46
2024-03-14T09:39:01.080Z,15.42
2024-03-14T09:40:01.055Z,15.42
2024-03-14T09:41:05.958Z,15.43
2024-03-14T09:42:02.078Z,15.49
2024-03-14T09:43:01.368Z,15.52
2024-03-14T09:44:01.024Z,15.56
2024-03-14T09:45:01.113Z,15.60
2024-03-14T09:46:00.947Z,15.61
2024-03-14T09:47:02.772Z,15.66
2024-03-14T09:48:01.138Z,15.72
2024-03-14T09:49:00.942Z,15.70
2024-03-14T09:50:00.959Z,15.75
2024-03-14T09:51:00.961Z,15.85
2024-03-14T09:52:00.900Z,15.99
2024-03-14T09:53:02.917Z,16.06
2024-03-14T09:54:01.039Z,16.14
2024-03-14T09:55:00.921Z,16.20
2024-03-14T09:56:01.023Z,16.15
2024-03-14T09:57:00.919Z,16.18
2024-03-14T09:58:00.878Z,16.04
2024-03-14T09:59:00.798Z,16.04
2024-03-14T10:00:00.960Z,16.01
2024-03-14T10:01:00.795Z,15.92
2024-03-14T10:02:00.791Z,15.85
2024-03-14T10:03:00.806Z,15.85
2024-03-14T10:04:00.976Z,15.75
2024-03-14T10:05:00.944Z,15.63
2024-03-14T10:06:00.704Z,15.64
2024-03-14T10:07:00.763Z,15.67
2024-03-14T10:08:00.788Z,15.78
2024-03-14T10:09:00.867Z,15.84
2024-03-14T10:10:00.639Z,15.89
2024-03-14T10:11:00.633Z,15.96
2024-03-14T10:12:00.737Z,16.01
2024-03-14T10:13:00.785Z,16.04
2024-03-14T10:14:00.657Z,16.01
2024-03-14T10:15:01.938Z,16.04
2024-03-14T10:16:00.563Z,16.11
2024-03-14T10:17:00.624Z,16.15
2024-03-14T10:18:00.770Z,16.18
2024-03-14T10:19:00.714Z,16.18
2024-03-14T10:20:00.543Z,16.04
2024-03-14T10:21:01.688Z,16.04
2024-03-14T10:22:00.527Z,16.03
2024-03-14T10:23:00.531Z,16.11
2024-03-14T10:24:00.514Z,16.12
2024-03-14T10:25:00.633Z,16.18
2024-03-14T10:26:00.428Z,16.15
2024-03-14T10:27:03.159Z,16.11
2024-03-14T10:28:09.100Z,16.11
2024-03-14T10:29:01.554Z,16.14
2024-03-14T10:30:00.551Z,16.15
2024-03-14T10:31:00.400Z,16.16
2024-03-14T10:32:00.402Z,16.20
2024-03-14T10:33:01.392Z,16.22
2024-03-14T10:34:00.574Z,16.09
2024-03-14T10:35:00.488Z,16.09
2024-03-14T10:36:00.584Z,16.07
2024-03-14T10:37:00.391Z,16.06
2024-03-14T10:38:00.488Z,16.11
2024-03-14T10:39:00.447Z,16.09
2024-03-14T10:40:00.403Z,16.11
2024-03-14T10:41:00.266Z,16.07
2024-03-14T10:42:00.284Z,16.01
2024-03-14T10:43:00.280Z,16.00
2024-03-14T10:44:00.217Z,16.04
2024-03-14T10:45:02.905Z,16.12
2024-03-14T10:46:00.365Z,16.12
2024-03-14T10:47:00.175Z,16.14
2024-03-14T10:48:00.401Z,16.18
2024-03-14T10:49:00.250Z,16.26
2024-03-14T10:50:00.181Z,16.38
2024-03-14T10:51:00.163Z,16.52
2024-03-14T10:52:00.110Z,16.62
2024-03-14T10:53:00.188Z,16.68
2024-03-14T10:54:00.100Z,16.67
2024-03-14T10:55:00.188Z,16.71
2024-03-14T10:56:00.058Z,16.78
2024-03-14T10:57:00.195Z,16.86
2024-03-14T10:58:00.023Z,16.89
2024-03-14T10:59:00.008Z,16.96
2024-03-14T11:00:00.128Z,17.03
2024-03-14T11:01:00.000Z,17.14
2024-03-14T11:02:00.941Z,17.26
2024-03-14T11:03:00.067Z,17.36
2024-03-14T11:04:00.003Z,17.35
2024-03-14T11:04:59.931Z,17.47
2024-03-14T11:05:59.927Z,17.63
2024-03-14T11:06:59.930Z,17.78
2024-03-14T11:07:59.919Z,17.92
2024-03-14T11:08:59.921Z,17.94
2024-03-14T11:10:00.066Z,17.82
2024-03-14T11:10:59.955Z,17.85
2024-03-14T11:11:59.888Z,17.78
2024-03-14T11:12:59.808Z,17.74
2024-03-14T11:13:59.858Z,17.67
2024-03-14T11:14:59.804Z,17.51
2024-03-14T11:15:59.780Z,17.53
2024-03-14T11:17:02.039Z,17.51
2024-03-14T11:17:59.936Z,17.51
2024-03-14T11:18:59.860Z,17.40
2024-03-14T11:19:59.861Z,17.26
2024-03-14T11:20:59.759Z,17.23
2024-03-14T11:21:59.821Z,17.32
2024-03-14T11:22:59.703Z,17.44
2024-03-14T11:23:59.704Z,17.57
2024-03-14T11:24:59.733Z,17.69
2024-03-14T11:25:59.660Z,17.85
2024-03-14T11:26:59.955Z,17.91
2024-03-14T11:27:59.630Z,17.95
2024-03-14T11:29:01.567Z,17.95
2024-03-14T11:29:59.632Z,17.92
2024-03-14T11:30:59.626Z,17.89
2024-03-14T11:31:59.598Z,17.91
2024-03-14T11:32:59.702Z,18.04
2024-03-14T11:33:59.562Z,18.10
2024-03-14T11:35:00.748Z,18.13
2024-03-14T11:35:59.797Z,18.10
2024-03-14T11:36:59.774Z,17.78
2024-03-14T11:37:59.498Z,17.79
2024-03-14T11:38:59.579Z,17.88
2024-03-14T11:39:59.510Z,17.84
2024-03-14T11:41:01.980Z,17.82
2024-03-14T11:41:59.544Z,17.87
2024-03-14T11:42:59.526Z,17.73
2024-03-14T11:43:59.440Z,17.62
2024-03-14T11:44:59.448Z,17.47
2024-03-14T11:45:59.588Z,17.64
2024-03-14T11:46:59.394Z,17.74
2024-03-14T11:47:59.537Z,17.84
2024-03-14T11:48:59.400Z,17.95
2024-03-14T11:49:59.352Z,17.97
2024-03-14T11:50:59.484Z,17.92
2024-03-14T11:51:59.308Z,17.79
2024-03-14T11:53:01.466Z,17.57
2024-03-14T11:53:59.358Z,17.48
2024-03-14T11:54:59.283Z,17.55
2024-03-14T11:56:06.838Z,17.59
2024-03-14T11:57:00.324Z,17.59
2024-03-14T11:57:59.375Z,17.59
2024-03-14T11:58:59.269Z,17.59
2024-03-14T12:00:06.697Z,17.59
2024-03-14T12:01:00.372Z,17.69
2024-03-14T12:02:01.865Z,17.76
2024-03-14T12:02:59.334Z,17.81
2024-03-14T12:03:59.748Z,17.79
2024-03-14T12:05:00.499Z,17.79
2024-03-14T12:05:59.409Z,17.78
2024-03-14T12:06:59.202Z,17.81
2024-03-14T12:07:59.164Z,17.85
2024-03-14T12:08:59.178Z,17.88
2024-03-14T12:09:59.091Z,17.87
2024-03-14T12:11:00.210Z,17.81
2024-03-14T12:11:59.120Z,17.76
2024-03-14T12:12:59.126Z,17.66
2024-03-14T12:13:59.046Z,17.59
2024-03-14T12:14:59.083Z,17.41
2024-03-14T12:15:59.075Z,17.47
2024-03-14T12:16:59.073Z,17.54
2024-03-14T12:17:59.176Z,17.62
2024-03-14T12:18:59.127Z,17.66
2024-03-14T12:19:59.166Z,17.69
2024-03-14T12:20:58.950Z,17.76
2024-03-14T12:21:58.970Z,17.87
2024-03-14T12:22:59.008Z,17.89
2024-03-14T12:23:58.991Z,17.85
2024-03-14T12:24:58.906Z,17.85
2024-03-14T12:25:58.909Z,17.87
2024-03-14T12:26:59.140Z,17.82
2024-03-14T12:27:58.890Z,17.70
2024-03-14T12:28:58.859Z,17.76
2024-03-14T12:29:58.880Z,17.78
2024-03-14T12:30:58.802Z,17.82
2024-03-14T12:31:58.832Z,17.81
2024-03-14T12:32:58.839Z,17.85
2024-03-14T12:34:01.489Z,17.94
2024-03-14T12:34:59.678Z,18.00
2024-03-14T12:35:58.922Z,18.03
2024-03-14T12:36:58.750Z,17.97
2024-03-14T12:37:58.909Z,17.94
2024-03-14T12:38:58.733Z,17.92
2024-03-14T12:39:58.713Z,17.94
2024-03-14T12:40:58.702Z,17.97
2024-03-14T12:41:58.705Z,18.04
2024-03-14T12:42:58.687Z,18.09
2024-03-14T12:43:58.745Z,18.09
2024-03-14T12:44:58.745Z,18.09
2024-03-14T12:45:58.629Z,18.07
2024-03-14T12:46:58.656Z,17.87
2024-03-14T12:47:58.662Z,17.79
2024-03-14T12:48:58.840Z,17.84
2024-03-14T12:49:58.655Z,17.71
2024-03-14T12:50:58.634Z,17.69
2024-03-14T12:51:58.639Z,17.54
2024-03-14T12:52:58.517Z,17.55
2024-03-14T12:53:58.544Z,17.62
2024-03-14T12:54:58.532Z,17.64
2024-03-14T12:55:58.524Z,17.70
2024-03-14T12:56:58.557Z,17.71
2024-03-14T12:57:58.512Z,17.73
2024-03-14T12:58:58.492Z,17.81
2024-03-14T12:59:58.487Z,17.84
2024-03-14T13:00:58.467Z,17.85
2024-03-14T13:01:58.446Z,17.78
2024-03-14T13:02:58.492Z,17.66